Time;durP1;ratioP1;P1;durP2;ratioP2;P2;SDS_P1;SDS_P2;PMS_P1;PMS_P2;Temp;Humidity;BMP_temperature;BMP_pressure;BME280_temperature;BME280_humidity;BME280_pressure;Samples;Min_cycle;Max_cycle;Signal;HPM_P1;HPM_P2
2021/08/25 00:07:16;;;;;;;4.97;3.80;;;19.70;99.90;;;;;;2632376;46;20200;-80
2021/08/25 00:09:45;;;;;;;6.45;4.50;;;13.90;99.90;;;;;;2631558;54;20153;-80
2021/08/25 00:12:14;;;;;;;5.18;4.35;;;13.50;99.90;;;;;;2631660;47;20134;-79
2021/08/25 00:14:44;;;;;;;3.83;3.47;;;13.70;99.90;;;;;;2632076;46;20133;-80
2021/08/25 00:17:14;;;;;;;4.50;3.47;;;13.90;99.90;;;;;;2631586;54;20165;-82
2021/08/25 00:19:42;;;;;;;4.30;3.78;;;14.10;99.90;;;;;;2631651;54;20213;-80
2021/08/25 00:22:11;;;;;;;7.15;4.50;;;14.40;99.90;;;;;;2632088;46;20132;-80
2021/08/25 00:24:43;;;;;;;4.65;4.03;;;14.50;99.90;;;;;;2631918;46;20137;-81
2021/08/25 00:27:12;;;;;;;6.18;3.58;;;14.50;99.90;;;;;;2631612;54;20152;-81
2021/08/25 00:29:41;;;;;;;4.82;3.80;;;14.30;99.90;;;;;;2631402;54;20129;-81
2021/08/25 00:32:10;;;;;;;4.22;3.13;;;14.20;99.90;;;;;;2631669;46;20136;-79
2021/08/25 00:34:39;;;;;;;5.22;3.60;;;14.30;99.90;;;;;;2631394;46;20164;-80
2021/08/25 00:37:08;;;;;;;4.15;3.58;;;14.20;99.90;;;;;;2631401;46;20168;-81
2021/08/25 00:39:36;;;;;;;5.00;3.97;;;14.10;99.90;;;;;;2631389;54;20670;-80
2021/08/25 00:42:08;;;;;;;5.03;3.88;;;14.20;99.90;;;;;;2631672;46;20160;-81
2021/08/25 00:44:37;;;;;;;4.78;3.85;;;14.30;99.90;;;;;;2631792;46;20125;-80
2021/08/25 00:47:06;;;;;;;5.28;3.72;;;14.50;99.90;;;;;;2631534;47;20879;-81
2021/08/25 00:49:35;;;;;;;6.28;3.92;;;14.80;99.90;;;;;;2631435;54;20143;-81
2021/08/25 00:52:03;;;;;;;4.28;3.42;;;14.80;99.90;;;;;;2631677;46;20725;-80
2021/08/25 00:54:32;;;;;;;4.28;3.55;;;14.40;99.90;;;;;;2631554;47;20129;-80
2021/08/25 00:57:01;;;;;;;4.90;3.42;;;14.30;99.90;;;;;;2631479;46;20145;-80
2021/08/25 00:59:33;;;;;;;7.72;4.10;;;14.30;99.90;;;;;;2631553;47;20142;-82
2021/08/25 01:02:11;;;;;;;3.70;3.20;;;14.20;99.90;;;;;;2631642;46;20186;-79
2021/08/25 01:04:45;;;;;;;4.95;3.17;;;14.20;99.90;;;;;;2631580;47;20137;-78
2021/08/25 01:07:16;;;;;;;4.47;3.80;;;14.30;99.90;;;;;;2631442;46;20137;-81
2021/08/25 01:09:45;;;;;;;6.57;3.63;;;14.50;99.90;;;;;;2631102;47;20170;-81
2021/08/25 01:12:14;;;;;;;4.43;4.03;;;14.80;99.90;;;;;;2631462;54;20140;-80
2021/08/25 01:14:47;;;;;;;4.53;3.70;;;15.20;99.90;;;;;;2631716;46;20136;-80
2021/08/25 01:17:21;;;;;;;6.20;3.92;;;15.20;99.90;;;;;;2631153;54;20148;-81
2021/08/25 01:19:58;;;;;;;5.43;3.53;;;15.10;99.90;;;;;;2631416;54;20130;-79
2021/08/25 01:22:27;;;;;;;3.63;3.10;;;14.80;99.90;;;;;;2631445;47;20128;-80
2021/08/25 01:24:57;;;;;;;5.05;3.83;;;14.90;99.90;;;;;;2631157;47;20148;-81
2021/08/25 01:27:28;;;;;;;4.32;3.90;;;15.00;99.90;;;;;;2631187;54;20133;-80
2021/08/25 01:30:01;;;;;;;5.63;3.75;;;14.70;99.90;;;;;;2631927;47;20168;-79
2021/08/25 01:32:30;;;;;;;4.93;3.92;;;14.70;99.90;;;;;;2631729;47;20157;-80
2021/08/25 01:35:00;;;;;;;5.40;3.53;;;14.70;99.90;;;;;;2631387;47;20143;-81
2021/08/25 01:37:30;;;;;;;5.10;3.92;;;14.40;99.90;;;;;;2631516;47;20141;-80
2021/08/25 01:39:59;;;;;;;4.47;3.60;;;14.20;99.90;;;;;;2631368;47;20137;-80
2021/08/25 01:42:28;;;;;;;4.68;3.50;;;14.10;99.90;;;;;;2631783;47;20129;-81
2021/08/25 01:44:59;;;;;;;6.47;3.90;;;13.50;99.90;;;;;;2631389;47;20122;-83
2021/08/25 01:47:28;;;;;;;5.13;3.60;;;13.10;99.90;;;;;;2631610;47;20153;-79
2021/08/25 01:49:57;;;;;;;4.22;3.83;;;13.10;99.90;;;;;;2631417;47;20129;-80
2021/08/25 01:52:26;;;;;;;4.28;3.88;;;13.30;99.90;;;;;;2631354;47;20132;-82
2021/08/25 01:54:56;;;;;;;5.18;4.47;;;13.20;99.90;;;;;;2631091;47;20148;-80
2021/08/25 01:57:25;;;;;;;5.15;4.25;;;13.00;99.90;;;;;;2631322;47;20817;-80
2021/08/25 01:59:54;;;;;;;4.40;3.97;;;12.80;99.90;;;;;;2631260;54;20137;-80
2021/08/25 02:02:25;;;;;;;5.95;4.25;;;12.50;99.90;;;;;;2631161;47;20129;-80
2021/08/25 02:04:54;;;;;;;6.28;3.90;;;12.40;99.90;;;;;;2631490;47;20130;-78
2021/08/25 02:07:23;;;;;;;4.78;3.50;;;12.60;99.90;;;;;;2631113;54;20129;-79
2021/08/25 02:09:51;;;;;;;5.65;3.80;;;12.70;99.90;;;;;;2631014;54;20165;-79
2021/08/25 02:12:20;;;;;;;7.72;5.03;;;12.80;99.90;;;;;;2631091;54;20125;-81
2021/08/25 02:14:49;;;;;;;4.97;3.38;;;13.10;99.90;;;;;;2631178;39;20603;-81
2021/08/25 02:17:17;;;;;;;8.40;4.63;;;13.30;99.90;;;;;;2631059;54;20766;-79
2021/08/25 02:20:04;;;;;;;5.78;3.95;;;13.30;99.90;;;;;;2631433;47;20130;-78
2021/08/25 02:22:32;;;;;;;4.85;4.03;;;13.10;99.90;;;;;;2631349;54;20134;-79
2021/08/25 02:25:01;;;;;;;5.43;4.03;;;13.30;99.90;;;;;;2631553;54;20145;-79
2021/08/25 02:27:30;;;;;;;4.15;3.72;;;13.40;99.90;;;;;;2632238;46;20153;-80
2021/08/25 02:29:58;;;;;;;5.30;4.18;;;13.50;99.90;;;;;;2631963;47;20365;-79
2021/08/25 02:32:28;;;;;;;3.85;3.45;;;13.60;99.90;;;;;;2631865;46;20136;-81
2021/08/25 02:34:57;;;;;;;4.97;4.35;;;13.60;99.90;;;;;;2631680;54;20176;-79
2021/08/25 02:37:28;;;;;;;6.78;3.85;;;13.70;99.90;;;;;;2631871;54;20845;-75
2021/08/25 02:39:57;;;;;;;4.07;3.25;;;14.10;99.90;;;;;;2631825;54;20209;-81
2021/08/25 02:42:26;;;;;;;6.32;3.78;;;14.30;99.90;;;;;;2631651;54;20133;-78
2021/08/25 02:44:54;;;;;;;7.72;4.07;;;14.40;99.90;;;;;;2631647;47;20136;-82
2021/08/25 02:47:23;;;;;;;6.35;4.63;;;14.60;99.90;;;;;;2632038;46;20161;-81
2021/08/25 02:49:52;;;;;;;4.28;3.83;;;14.50;99.90;;;;;;2631829;47;20142;-78
2021/08/25 02:52:21;;;;;;;4.25;3.85;;;14.30;99.90;;;;;;2631910;54;20130;-79
2021/08/25 02:54:53;;;;;;;6.32;4.13;;;14.30;99.90;;;;;;2631800;54;20130;-80
2021/08/25 02:57:21;;;;;;;6.22;4.10;;;14.60;99.90;;;;;;2631917;54;20141;-79
2021/08/25 02:59:50;;;;;;;4.72;4.03;;;14.80;99.90;;;;;;2631761;54;20201;-78
2021/08/25 03:02:19;;;;;;;4.28;3.20;;;14.70;99.90;;;;;;2631800;54;20140;-80
2021/08/25 03:04:48;;;;;;;5.57;3.25;;;14.60;99.90;;;;;;2631660;54;20161;-80
2021/08/25 03:07:16;;;;;;;4.30;3.90;;;14.40;99.90;;;;;;2631807;47;20201;-80
2021/08/25 03:09:45;;;;;;;5.45;3.70;;;14.30;99.90;;;;;;2648081;39;20770;-79
2021/08/25 03:12:16;;;;;;;6.25;3.45;;;14.30;99.90;;;;;;2634165;39;20736;-78
2021/08/25 03:14:45;;;;;;;5.00;4.00;;;13.10;99.90;;;;;;2632005;46;20144;-77
2021/08/25 03:17:15;;;;;;;4.32;3.72;;;12.00;99.90;;;;;;2631665;47;20134;-78
2021/08/25 03:19:44;;;;;;;7.03;4.22;;;11.40;99.90;;;;;;2631923;46;20173;-79
2021/08/25 03:22:12;;;;;;;4.43;3.95;;;11.20;99.90;;;;;;2631666;47;20130;-81
2021/08/25 03:24:41;;;;;;;5.78;4.40;;;11.60;99.90;;;;;;2631535;54;20133;-75
2021/08/25 03:27:10;;;;;;;12.05;4.72;;;12.10;99.90;;;;;;2631660;47;20176;-80
2021/08/25 03:29:41;;;;;;;4.88;4.38;;;12.60;99.90;;;;;;2631951;47;20139;-79
2021/08/25 03:32:10;;;;;;;6.93;4.47;;;13.20;99.90;;;;;;2631421;54;20136;-80
2021/08/25 03:34:40;;;;;;;9.90;4.45;;;13.60;99.90;;;;;;2631537;54;20167;-78
2021/08/25 03:37:08;;;;;;;4.88;3.95;;;13.80;99.90;;;;;;2631956;46;20169;-79
2021/08/25 03:39:37;;;;;;;6.10;4.22;;;14.00;99.90;;;;;;2631778;46;20130;-77
2021/08/25 03:42:08;;;;;;;4.30;3.90;;;14.10;99.90;;;;;;2634284;39;20706;-79
2021/08/25 03:44:37;;;;;;;5.13;4.30;;;14.00;99.90;;;;;;2631656;46;20182;-78
2021/08/25 03:47:09;;;;;;;7.30;4.25;;;13.80;99.90;;;;;;2637803;39;20743;-80
2021/08/25 03:49:39;;;;;;;4.95;3.70;;;13.70;99.90;;;;;;2631654;46;20137;-80
2021/08/25 03:52:08;;;;;;;3.78;3.47;;;13.70;99.90;;;;;;2632154;46;20130;-77
2021/08/25 03:54:37;;;;;;;5.88;4.30;;;13.50;99.90;;;;;;2631975;46;20141;-78
2021/08/25 03:57:06;;;;;;;4.22;3.58;;;13.40;99.90;;;;;;2631544;54;20224;-83
2021/08/25 03:59:35;;;;;;;5.65;3.85;;;13.50;99.90;;;;;;2631526;54;20137;-80
2021/08/25 04:02:03;;;;;;;5.75;4.32;;;13.60;99.90;;;;;;2629638;54;20134;-81
2021/08/25 04:04:35;;;;;;;5.18;3.92;;;13.70;99.90;;;;;;2631275;47;20122;-81
2021/08/25 04:07:04;;;;;;;4.80;3.78;;;13.80;99.90;;;;;;2631039;54;20169;-80
2021/08/25 04:09:32;;;;;;;4.05;3.65;;;13.80;99.90;;;;;;2631056;54;20218;-78
2021/08/25 04:12:01;;;;;;;4.35;3.78;;;13.80;99.90;;;;;;2631467;46;20126;-79
2021/08/25 04:14:30;;;;;;;5.15;3.90;;;13.70;99.90;;;;;;2631189;47;20145;-81
2021/08/25 04:16:59;;;;;;;6.68;3.47;;;13.70;99.90;;;;;;2631206;47;20146;-79
2021/08/25 04:19:27;;;;;;;5.05;3.92;;;13.70;99.90;;;;;;2631232;47;20833;-79
2021/08/25 04:21:59;;;;;;;4.72;3.45;;;13.40;99.90;;;;;;2631305;47;20297;-82
2021/08/25 04:24:27;;;;;;;4.53;4.13;;;13.00;99.90;;;;;;2630942;47;20141;-80
2021/08/25 04:26:56;;;;;;;5.03;4.07;;;12.70;99.90;;;;;;2631104;54;20275;-80
2021/08/25 04:29:25;;;;;;;7.80;4.32;;;13.00;99.90;;;;;;2631231;46;20152;-78
2021/08/25 04:31:54;;;;;;;4.72;3.63;;;13.30;99.90;;;;;;2631109;54;20133;-80
2021/08/25 04:34:23;;;;;;;4.32;3.85;;;13.50;99.90;;;;;;2631004;47;20164;-80
2021/08/25 04:36:51;;;;;;;4.82;3.55;;;13.70;99.90;;;;;;2631118;47;20185;-79
2021/08/25 04:39:23;;;;;;;4.32;3.92;;;13.50;99.90;;;;;;2630968;47;20126;-79
2021/08/25 04:41:51;;;;;;;6.43;3.97;;;13.30;99.90;;;;;;2631252;46;20125;-80
2021/08/25 04:44:20;;;;;;;4.85;3.63;;;13.10;99.90;;;;;;2631045;47;20125;-81
2021/08/25 04:46:49;;;;;;;5.35;4.18;;;12.70;99.90;;;;;;2631212;46;20181;-80
2021/08/25 04:49:18;;;;;;;5.72;3.78;;;12.70;99.90;;;;;;2631129;46;20185;-81
2021/08/25 04:51:47;;;;;;;4.57;3.75;;;12.00;99.90;;;;;;2631051;47;20149;-77
2021/08/25 04:54:16;;;;;;;4.30;3.38;;;11.40;99.90;;;;;;2631398;47;20165;-78
2021/08/25 04:56:47;;;;;;;6.35;4.22;;;11.10;99.90;;;;;;2630010;47;20153;-76
2021/08/25 04:59:16;;;;;;;3.88;3.50;;;11.20;99.90;;;;;;2630120;47;20156;-77
2021/08/25 05:01:44;;;;;;;4.32;3.80;;;11.40;99.90;;;;;;2629824;47;20149;-80
2021/08/25 05:04:13;;;;;;;4.70;3.33;;;11.80;99.90;;;;;;2629649;47;20141;-79
2021/08/25 05:06:42;;;;;;;5.03;4.47;;;11.40;99.90;;;;;;2629893;47;20180;-78
2021/08/25 05:09:11;;;;;;;4.85;3.83;;;11.20;99.90;;;;;;2629784;47;20749;-79
2021/08/25 05:11:39;;;;;;;6.47;4.07;;;11.30;99.90;;;;;;2629961;47;20145;-79
2021/08/25 05:14:11;;;;;;;5.28;3.97;;;11.50;99.90;;;;;;2629741;54;20149;-79
2021/08/25 05:16:40;;;;;;;7.32;3.80;;;11.40;99.90;;;;;;2629588;47;20169;-78
2021/08/25 05:19:08;;;;;;;5.68;3.95;;;11.20;99.90;;;;;;2630300;47;20160;-79
2021/08/25 05:21:37;;;;;;;4.57;3.47;;;11.30;99.90;;;;;;2629888;54;20168;-79
2021/08/25 05:24:06;;;;;;;4.88;3.78;;;11.30;99.90;;;;;;2629612;51;20152;-81
2021/08/25 05:26:35;;;;;;;4.32;3.88;;;11.30;99.90;;;;;;2630419;46;20161;-79
2021/08/25 05:29:04;;;;;;;6.05;4.35;;;11.60;99.90;;;;;;2630326;47;20150;-78
2021/08/25 05:31:35;;;;;;;6.07;3.47;;;11.70;99.90;;;;;;2629912;54;20849;-78
2021/08/25 05:34:04;;;;;;;3.72;3.33;;;11.60;99.90;;;;;;2630178;54;20149;-76
2021/08/25 05:36:33;;;;;;;5.47;4.32;;;11.70;99.90;;;;;;2629746;47;20172;-78
2021/08/25 05:39:02;;;;;;;5.00;3.80;;;12.00;99.90;;;;;;2629815;54;20140;-78
2021/08/25 05:41:30;;;;;;;6.50;4.10;;;12.30;99.90;;;;;;2629705;47;20138;-78
2021/08/25 05:44:03;;;;;;;4.35;3.65;;;12.10;99.90;;;;;;2629651;47;20150;-76
2021/08/25 05:46:36;;;;;;;5.15;4.18;;;12.10;99.90;;;;;;2629666;54;20176;-81
2021/08/25 05:49:05;;;;;;;5.60;4.82;;;12.10;99.90;;;;;;2635098;39;20606;-79
2021/08/25 05:51:34;;;;;;;6.63;4.53;;;12.10;99.90;;;;;;2629767;47;20161;-79
2021/08/25 05:54:02;;;;;;;4.82;3.42;;;12.50;99.90;;;;;;2629810;47;20813;-78
2021/08/25 05:56:31;;;;;;;5.38;4.15;;;12.80;99.90;;;;;;2629823;47;20203;-80
2021/08/25 05:59:00;;;;;;;4.35;3.92;;;12.90;99.90;;;;;;2630331;47;20147;-79
2021/08/25 06:01:29;;;;;;;6.47;4.10;;;13.00;99.90;;;;;;2630350;47;20165;-79
2021/08/25 06:04:00;;;;;;;4.80;4.30;;;13.10;99.90;;;;;;2629995;54;20145;-79
2021/08/25 06:06:34;;;;;;;10.63;3.42;;;13.50;99.90;;;;;;2623353;46;20220;-41
2021/08/25 06:09:04;;;;;;;4.90;4.20;;;13.60;99.90;;;;;;2616793;54;20141;-40
2021/08/25 06:11:36;;;;;;;4.40;3.88;;;13.60;99.90;;;;;;2616554;54;20176;-42
2021/08/25 06:14:05;;;;;;;4.50;4.10;;;13.50;99.90;;;;;;2617652;39;20554;-42
2021/08/25 06:16:34;;;;;;;5.85;4.65;;;13.50;99.90;;;;;;2616941;54;20156;-41
2021/08/25 06:19:05;;;;;;;6.68;4.78;;;13.30;99.90;;;;;;2617122;54;20146;-40
2021/08/25 06:21:52;;;;;;;6.65;4.10;;;13.40;99.90;;;;;;2617180;54;20240;-39
2021/08/25 06:24:21;;;;;;;5.10;3.38;;;13.30;99.90;;;;;;2617135;46;20383;-39
2021/08/25 06:26:49;;;;;;;4.97;3.78;;;12.80;99.90;;;;;;2617119;54;20148;-41
2021/08/25 06:29:18;;;;;;;5.82;4.90;;;12.50;99.90;;;;;;2617162;54;20145;-39
2021/08/25 06:31:47;;;;;;;6.57;4.68;;;12.50;99.90;;;;;;2616733;47;20189;-39
2021/08/25 06:34:18;;;;;;;5.05;4.55;;;12.40;99.90;;;;;;2617087;39;20580;-41
2021/08/25 06:36:47;;;;;;;4.90;4.20;;;12.40;99.90;;;;;;2616732;54;20137;-40
2021/08/25 06:39:16;;;;;;;6.38;4.43;;;12.60;99.90;;;;;;2616920;54;20747;-40
2021/08/25 06:41:44;;;;;;;7.30;5.38;;;12.80;99.90;;;;;;2616427;54;20161;-41
2021/08/25 06:44:13;;;;;;;7.57;5.65;;;12.80;99.90;;;;;;2616658;54;20141;-41
2021/08/25 06:46:42;;;;;;;7.88;5.90;;;12.80;99.90;;;;;;2616564;54;20152;-41
2021/08/25 06:49:11;;;;;;;8.07;5.03;;;13.10;99.90;;;;;;2616727;54;20149;-40
2021/08/25 06:51:42;;;;;;;6.18;4.70;;;13.10;99.90;;;;;;2616691;54;20709;-40
2021/08/25 06:54:11;;;;;;;7.80;5.68;;;13.20;99.90;;;;;;2616909;47;20154;-40
2021/08/25 06:56:40;;;;;;;6.72;5.20;;;13.10;99.90;;;;;;2616608;47;20141;-40
2021/08/25 06:59:08;;;;;;;8.55;4.97;;;13.50;99.90;;;;;;2616799;47;20145;-40
2021/08/25 07:01:37;;;;;;;6.97;5.15;;;13.90;99.90;;;;;;2614994;54;20212;-40
2021/08/25 07:04:06;;;;;;;9.15;5.20;;;14.10;99.90;;;;;;2616800;54;20743;-40
2021/08/25 07:06:35;;;;;;;7.25;5.85;;;14.30;99.90;;;;;;2616350;54;20146;-40
2021/08/25 07:09:07;;;;;;;8.27;5.90;;;14.50;99.90;;;;;;2616673;54;20148;-42
2021/08/25 07:11:36;;;;;;;7.10;5.18;;;14.70;99.90;;;;;;2616888;54;20177;-40
2021/08/25 07:14:05;;;;;;;7.60;5.80;;;14.80;99.90;;;;;;2616822;54;20145;-40
2021/08/25 07:16:34;;;;;;;9.43;6.20;;;14.90;99.90;;;;;;2616457;54;20138;-40
2021/08/25 07:19:03;;;;;;;6.72;5.95;;;15.00;99.90;;;;;;2616817;54;20169;-50
2021/08/25 07:21:33;;;;;;;8.50;5.72;;;15.10;99.90;;;;;;2615942;54;20172;-39
2021/08/25 07:24:03;;;;;;;6.57;5.40;;;15.20;99.90;;;;;;2616829;54;20158;-40
2021/08/25 07:26:34;;;;;;;7.97;5.57;;;15.30;99.90;;;;;;2618600;47;20142;-40
2021/08/25 07:29:03;;;;;;;6.80;5.57;;;15.00;99.90;;;;;;2619252;54;20146;-43
2021/08/25 07:31:32;;;;;;;5.88;4.75;;;15.00;99.90;;;;;;2617530;54;20188;-40
2021/08/25 07:34:02;;;;;;;6.22;5.03;;;15.10;99.90;;;;;;2616480;54;20137;-40
2021/08/25 07:36:30;;;;;;;6.90;5.07;;;15.00;99.90;;;;;;2616458;54;20146;-40
2021/08/25 07:38:59;;;;;;;8.15;5.53;;;15.20;99.90;;;;;;2616821;51;20156;-40
2021/08/25 07:41:28;;;;;;;6.75;4.68;;;15.40;99.90;;;;;;2616505;54;20173;-39
2021/08/25 07:43:59;;;;;;;5.78;4.15;;;15.30;99.90;;;;;;2616426;54;20165;-41
2021/08/25 07:46:32;;;;;;;6.97;5.43;;;15.50;99.90;;;;;;2616436;54;20146;-40
2021/08/25 07:49:01;;;;;;;8.27;5.05;;;15.50;99.90;;;;;;2616392;54;20697;-40
2021/08/25 07:51:30;;;;;;;8.63;4.57;;;15.50;99.90;;;;;;2616133;54;20176;-42
2021/08/25 07:53:59;;;;;;;6.68;4.38;;;15.60;99.90;;;;;;2616385;54;20156;-42
2021/08/25 07:56:28;;;;;;;8.13;5.05;;;15.90;99.90;;;;;;2616914;39;20559;-42
2021/08/25 07:58:59;;;;;;;6.68;4.68;;;16.40;99.90;;;;;;2616765;39;20550;-41
2021/08/25 08:01:28;;;;;;;5.22;4.53;;;16.60;99.90;;;;;;2616216;54;20173;-41
2021/08/25 08:03:57;;;;;;;9.05;5.40;;;16.60;99.90;;;;;;2616286;54;20138;-40
2021/08/25 08:06:26;;;;;;;6.45;4.82;;;16.40;99.90;;;;;;2615941;54;20685;-42
2021/08/25 08:08:55;;;;;;;6.72;4.40;;;16.40;99.90;;;;;;2616471;54;20142;-40
2021/08/25 08:11:24;;;;;;;6.63;4.22;;;16.60;99.90;;;;;;2616463;54;20153;-40
2021/08/25 08:13:52;;;;;;;7.60;5.65;;;17.10;99.90;;;;;;2616484;54;20249;-42
2021/08/25 08:16:24;;;;;;;6.18;4.55;;;17.50;99.90;;;;;;2616464;54;20134;-40
2021/08/25 08:18:58;;;;;;;7.43;4.72;;;17.70;99.90;;;;;;2616351;46;20226;-43
2021/08/25 08:21:29;;;;;;;5.25;4.53;;;17.90;99.90;;;;;;2616291;54;20195;-40
2021/08/25 08:23:59;;;;;;;7.00;4.68;;;17.80;99.90;;;;;;2616400;54;20141;-41
2021/08/25 08:26:30;;;;;;;7.93;4.53;;;17.90;99.90;;;;;;2616266;54;20148;-40
2021/08/25 08:29:00;;;;;;;7.82;4.40;;;17.90;99.90;;;;;;2616280;54;20225;-40
2021/08/25 08:31:32;;;;;;;5.82;3.97;;;17.50;99.90;;;;;;2616211;54;20202;-42
2021/08/25 08:34:01;;;;;;;5.55;4.50;;;17.40;99.90;;;;;;2616560;47;20141;-40
2021/08/25 08:36:30;;;;;;;9.43;3.80;;;17.70;99.90;;;;;;2616960;39;20594;-42
2021/08/25 08:38:58;;;;;;;6.65;5.15;;;18.10;99.90;;;;;;2616497;46;20185;-40
2021/08/25 08:41:27;;;;;;;5.38;4.07;;;18.10;99.90;;;;;;2616723;39;20597;-41
2021/08/25 08:43:56;;;;;;;9.85;5.05;;;18.20;99.90;;;;;;2616585;54;20160;-40
2021/08/25 08:46:26;;;;;;;5.97;4.20;;;18.20;99.90;;;;;;2616238;54;20166;-41
2021/08/25 08:48:58;;;;;;;5.63;4.35;;;17.90;99.90;;;;;;2617560;54;20153;-41
2021/08/25 08:51:28;;;;;;;4.47;4.07;;;18.20;99.90;;;;;;2618077;54;20196;-41
2021/08/25 08:53:56;;;;;;;6.78;4.32;;;18.10;99.90;;;;;;2617870;54;20147;-40
2021/08/25 08:56:25;;;;;;;5.00;3.88;;;18.20;99.90;;;;;;2618954;47;20679;-41
2021/08/25 08:58:57;;;;;;;6.25;4.30;;;18.10;99.90;;;;;;2619120;54;20133;-41
2021/08/25 12:23:05;;;;;;;3.70;3.10;;;18.20;99.90;;;;;;2615641;46;20271;-40
2021/08/25 12:25:45;;;;;;;7.15;4.20;;;22.90;99.90;;;;;;2616618;39;20567;-40
2021/08/25 12:28:15;;;;;;;4.00;3.30;;;23.00;99.90;;;;;;2616884;54;20156;-39
2021/08/25 12:30:45;;;;;;;4.07;3.63;;;23.00;99.90;;;;;;2616499;54;20196;-40
2021/08/25 12:33:28;;;;;;;8.00;4.55;;;23.10;99.90;;;;;;2616795;47;20146;-40
2021/08/25 12:35:57;;;;;;;9.68;4.72;;;23.10;99.90;;;;;;2616729;54;20200;-41
2021/08/25 12:38:34;;;;;;;5.40;4.45;;;23.50;99.90;;;;;;2617160;54;20146;-40
2021/08/25 12:41:02;;;;;;;7.47;4.25;;;23.70;99.90;;;;;;2616836;54;20183;-40
2021/08/25 12:43:31;;;;;;;6.45;4.60;;;24.10;99.90;;;;;;2616696;54;20537;-40
2021/08/25 12:46:00;;;;;;;7.63;5.03;;;24.20;99.90;;;;;;2616417;54;20679;-39
2021/08/25 12:48:29;;;;;;;8.23;4.68;;;23.80;99.90;;;;;;2616778;54;20137;-39
2021/08/25 12:50:57;;;;;;;7.15;5.13;;;23.60;99.90;;;;;;2616849;54;20184;-40
2021/08/25 12:53:26;;;;;;;4.95;3.95;;;23.00;99.90;;;;;;2616861;54;20141;-39
2021/08/25 12:55:58;;;;;;;6.82;4.35;;;22.90;99.90;;;;;;2616781;39;20566;-39
2021/08/25 12:58:26;;;;;;;5.50;4.65;;;22.40;99.90;;;;;;2617253;39;20562;-40
2021/08/25 13:00:55;;;;;;;5.72;4.68;;;22.10;99.90;;;;;;2616449;54;20173;-40
2021/08/25 13:03:24;;;;;;;5.88;4.43;;;22.00;99.90;;;;;;2616700;54;20156;-40
2021/08/25 13:05:53;;;;;;;5.20;3.13;;;22.00;99.90;;;;;;2616488;54;20380;-39
2021/08/25 13:08:21;;;;;;;4.13;3.05;;;22.10;99.90;;;;;;2616740;54;20156;-40
2021/08/25 13:10:50;;;;;;;5.15;3.38;;;22.20;99.90;;;;;;2616469;54;20699;-39
2021/08/25 13:13:21;;;;;;;5.05;3.88;;;22.30;99.90;;;;;;2616547;54;20647;-40
2021/08/25 13:15:50;;;;;;;4.47;4.07;;;21.80;99.90;;;;;;2616394;54;20153;-40
2021/08/25 13:18:19;;;;;;;5.28;4.25;;;21.90;99.90;;;;;;2616712;54;20149;-39
2021/08/25 13:20:48;;;;;;;4.53;3.92;;;21.90;99.90;;;;;;2616018;54;20169;-40
2021/08/25 13:23:16;;;;;;;6.22;4.00;;;21.60;99.90;;;;;;2617015;39;20547;-41
2021/08/25 13:25:45;;;;;;;6.85;4.20;;;21.50;99.90;;;;;;2616307;54;20149;-41
2021/08/25 13:28:15;;;;;;;6.13;4.28;;;21.50;99.90;;;;;;2616524;54;20678;-40
2021/08/25 13:30:46;;;;;;;3.35;2.92;;;21.50;99.90;;;;;;2616871;54;20168;-40
2021/08/25 13:33:15;;;;;;;5.07;3.67;;;21.10;99.90;;;;;;2616815;54;20149;-40
2021/08/25 13:35:43;;;;;;;3.75;3.25;;;21.00;99.90;;;;;;2616550;54;20141;-39
2021/08/25 13:38:12;;;;;;;6.93;3.97;;;21.00;99.90;;;;;;2616736;54;20168;-40
2021/08/25 13:40:41;;;;;;;4.78;4.28;;;20.80;99.90;;;;;;2616580;39;20439;-40
2021/08/25 13:43:10;;;;;;;4.30;3.90;;;20.90;99.90;;;;;;2616862;39;20628;-39
2021/08/25 13:45:39;;;;;;;5.53;3.22;;;21.10;99.90;;;;;;2616276;54;20149;-40
2021/08/25 13:48:10;;;;;;;6.05;3.55;;;21.10;99.90;;;;;;2617039;39;20531;-40
2021/08/25 13:50:39;;;;;;;5.55;4.07;;;21.30;99.90;;;;;;2616239;54;20141;-40
2021/08/25 13:53:08;;;;;;;6.70;3.60;;;21.30;99.90;;;;;;2616543;54;20141;-39
2021/08/25 13:55:37;;;;;;;4.00;3.63;;;21.30;99.90;;;;;;2616268;54;20150;-39
2021/08/25 13:58:06;;;;;;;3.95;3.10;;;21.40;99.90;;;;;;2617334;54;20152;-39
2021/08/25 14:00:35;;;;;;;5.47;3.90;;;21.40;99.90;;;;;;2617289;39;20562;-40
2021/08/25 14:03:04;;;;;;;6.40;3.88;;;21.40;99.90;;;;;;2617023;39;20575;-39
2021/08/25 14:05:35;;;;;;;4.70;4.30;;;21.40;99.90;;;;;;2616335;54;20149;-39
2021/08/25 14:08:04;;;;;;;6.00;4.85;;;21.40;99.90;;;;;;2617575;54;20134;-40
2021/08/25 14:10:33;;;;;;;7.38;4.65;;;21.50;99.90;;;;;;2617083;39;20584;-40
2021/08/25 14:13:02;;;;;;;4.95;4.13;;;21.50;99.90;;;;;;2616194;54;20145;-40
2021/08/25 14:15:32;;;;;;;6.43;5.53;;;21.50;99.90;;;;;;2616127;54;20145;-39
2021/08/25 14:18:01;;;;;;;5.13;3.88;;;21.40;99.90;;;;;;2617116;54;20134;-40
2021/08/25 14:20:31;;;;;;;6.22;3.65;;;21.80;99.90;;;;;;2616461;54;20152;-40
2021/08/25 14:23:03;;;;;;;4.15;3.75;;;22.20;99.90;;;;;;2617421;54;20663;-40
2021/08/25 14:25:32;;;;;;;3.90;3.03;;;22.10;99.90;;;;;;2617051;54;20726;-41
2021/08/25 14:28:01;;;;;;;4.43;4.03;;;22.30;99.90;;;;;;2617098;54;20148;-40
2021/08/25 14:30:31;;;;;;;10.00;4.05;;;22.40;99.90;;;;;;2616771;54;20145;-40
2021/08/25 14:32:59;;;;;;;4.90;3.90;;;22.30;99.90;;;;;;2616943;54;20148;-40
2021/08/25 14:35:28;;;;;;;4.05;3.63;;;22.60;99.90;;;;;;2617053;47;20149;-40
2021/08/25 14:37:57;;;;;;;6.50;3.88;;;22.70;99.90;;;;;;2617216;39;20554;-40
2021/08/25 14:40:28;;;;;;;6.40;3.65;;;22.70;99.90;;;;;;2616556;54;20222;-40
2021/08/25 14:42:57;;;;;;;5.20;3.65;;;22.50;99.90;;;;;;2616709;54;20152;-42
2021/08/25 14:45:26;;;;;;;4.50;3.42;;;22.50;99.90;;;;;;2616306;54;20149;-41
2021/08/25 14:47:55;;;;;;;4.18;2.95;;;22.70;99.90;;;;;;2616704;54;20149;-41
2021/08/25 14:50:23;;;;;;;3.10;2.75;;;23.00;99.90;;;;;;2616760;47;20145;-41
2021/08/25 14:52:52;;;;;;;4.13;3.25;;;23.00;99.90;;;;;;2616596;39;20548;-41
2021/08/25 14:55:23;;;;;;;4.50;3.40;;;23.00;99.90;;;;;;2616896;54;20149;-40
2021/08/25 14:57:54;;;;;;;4.35;3.55;;;23.00;99.90;;;;;;2616820;54;20141;-40
2021/08/25 15:00:23;;;;;;;8.20;3.85;;;22.30;99.90;;;;;;2616882;54;20756;-41
2021/08/25 15:02:52;;;;;;;6.40;4.65;;;22.20;99.90;;;;;;2617243;54;20192;-40
2021/08/25 15:05:22;;;;;;;3.67;3.25;;;22.20;99.90;;;;;;2616600;54;20145;-41
2021/08/25 15:07:50;;;;;;;6.28;3.40;;;22.10;99.90;;;;;;2615068;54;20161;-40
2021/08/25 15:10:19;;;;;;;4.78;3.30;;;22.30;99.90;;;;;;2615864;54;20161;-40
2021/08/25 15:12:48;;;;;;;5.50;3.47;;;22.60;99.90;;;;;;2617173;54;20129;-40
2021/08/25 15:15:20;;;;;;;5.18;3.20;;;22.30;99.90;;;;;;2617241;54;20148;-41
2021/08/25 15:17:48;;;;;;;4.50;2.88;;;22.20;99.90;;;;;;2617471;39;20201;-40
2021/08/25 15:20:18;;;;;;;4.15;2.92;;;22.50;99.90;;;;;;2616702;54;20145;-41
2021/08/25 15:22:49;;;;;;;2.92;2.63;;;22.40;99.90;;;;;;2616787;47;20177;-40
2021/08/25 15:25:18;;;;;;;7.55;2.90;;;22.10;99.90;;;;;;2616668;54;20222;-40
2021/08/25 15:27:47;;;;;;;4.43;2.75;;;22.20;99.90;;;;;;2616544;54;20287;-39
2021/08/25 15:30:19;;;;;;;4.72;2.42;;;22.70;99.90;;;;;;2616855;54;20152;-41
2021/08/25 15:32:48;;;;;;;6.28;3.03;;;23.20;99.90;;;;;;2616867;54;20145;-41
2021/08/25 15:35:17;;;;;;;4.22;2.70;;;23.60;99.90;;;;;;2616586;54;20145;-41
2021/08/25 15:37:46;;;;;;;4.82;2.75;;;23.20;99.90;;;;;;2617097;54;20137;-40
2021/08/25 15:40:15;;;;;;;9.07;2.72;;;23.00;99.90;;;;;;2616566;54;20180;-41
2021/08/25 15:42:44;;;;;;;3.03;2.17;;;22.90;99.90;;;;;;2617049;54;20180;-42
2021/08/25 15:45:13;;;;;;;3.90;2.20;;;22.50;99.90;;;;;;2616716;39;20552;-40
2021/08/25 15:47:45;;;;;;;7.40;1.75;;;22.00;99.90;;;;;;2616674;54;20137;-41
2021/08/25 15:50:14;;;;;;;2.03;1.58;;;21.90;99.90;;;;;;2616588;54;20164;-39
2021/08/25 15:52:44;;;;;;;3.08;2.40;;;21.80;99.90;;;;;;2616608;49;20308;-40
2021/08/25 15:55:13;;;;;;;9.23;2.20;;;21.70;99.90;;;;;;2616944;54;20140;-41
2021/08/25 15:57:42;;;;;;;4.38;1.73;;;21.60;99.90;;;;;;2616765;54;20134;-40
2021/08/25 16:00:12;;;;;;;3.67;1.85;;;21.50;99.90;;;;;;2616345;54;20161;-43
2021/08/25 16:02:41;;;;;;;3.88;2.13;;;21.50;99.90;;;;;;2627435;51;20209;-78
2021/08/25 16:05:12;;;;;;;1.80;1.60;;;21.60;99.90;;;;;;2629965;54;20157;-79
2021/08/25 16:07:41;;;;;;;2.92;2.08;;;21.60;99.90;;;;;;2629944;47;20814;-77
2021/08/25 16:10:11;;;;;;;2.17;1.55;;;21.40;99.90;;;;;;2629261;51;20157;-75
2021/08/25 16:12:40;;;;;;;1.95;1.75;;;21.10;99.90;;;;;;2628667;47;20195;-76
2021/08/25 16:15:10;;;;;;;4.20;2.38;;;21.10;99.90;;;;;;2624537;54;20556;-39
2021/08/25 16:17:38;;;;;;;2.33;1.45;;;21.10;99.90;;;;;;2616782;54;20145;-39
2021/08/25 16:20:08;;;;;;;1.95;1.60;;;21.10;99.90;;;;;;2616250;54;20153;-41
2021/08/25 16:22:40;;;;;;;3.47;1.70;;;21.00;99.90;;;;;;2616278;50;20315;-40
2021/08/25 16:25:09;;;;;;;4.90;1.92;;;21.00;99.90;;;;;;2615966;54;20152;-39